sensor_id;sensor_type;location;lat;lon;timestamp;P1;durP1;ratioP1;P2;durP2;ratioP2
23258;SDS011;11798;51.528;7.240;2022-08-01T02:53:51;43.20;;;32.23;;
23258;SDS011;11798;51.528;7.240;2022-08-01T02:56:19;43.40;;;31.17;;
23258;SDS011;11798;51.528;7.240;2022-08-01T02:58:47;48.80;;;32.53;;
23258;SDS011;11798;51.528;7.240;2022-08-01T03:01:15;40.93;;;31.77;;
23258;SDS011;11798;51.528;7.240;2022-08-01T03:03:42;42.27;;;31.20;;
23258;SDS011;11798;51.528;7.240;2022-08-01T03:06:08;37.50;;;29.80;;
23258;SDS011;11798;51.528;7.240;2022-08-01T03:08:35;35.57;;;28.33;;
23258;SDS011;11798;51.528;7.240;2022-08-01T03:35:28;42.63;;;30.97;;
23258;SDS011;11798;51.528;7.240;2022-08-01T06:04:16;25.50;;;19.63;;
23258;SDS011;11798;51.528;7.240;2022-08-01T06:06:41;23.77;;;18.60;;
23258;SDS011;11798;51.528;7.240;2022-08-01T06:09:07;24.60;;;18.57;;
23258;SDS011;11798;51.528;7.240;2022-08-01T06:11:32;23.57;;;17.67;;
23258;SDS011;11798;51.528;7.240;2022-08-01T06:13:58;21.63;;;17.50;;
23258;SDS011;11798;51.528;7.240;2022-08-01T06:16:23;26.03;;;17.60;;
23258;SDS011;11798;51.528;7.240;2022-08-01T06:18:49;24.97;;;17.83;;
23258;SDS011;11798;51.528;7.240;2022-08-01T06:21:15;25.37;;;19.17;;
23258;SDS011;11798;51.528;7.240;2022-08-01T06:23:40;25.10;;;18.27;;
23258;SDS011;11798;51.528;7.240;2022-08-01T06:26:07;28.00;;;21.10;;
23258;SDS011;11798;51.528;7.240;2022-08-01T06:28:32;29.07;;;20.77;;
23258;SDS011;11798;51.528;7.240;2022-08-01T06:30:58;25.43;;;18.67;;
23258;SDS011;11798;51.528;7.240;2022-08-01T06:33:24;23.70;;;17.33;;
23258;SDS011;11798;51.528;7.240;2022-08-01T06:35:50;22.23;;;17.07;;
23258;SDS011;11798;51.528;7.240;2022-08-01T06:38:16;20.47;;;16.50;;
23258;SDS011;11798;51.528;7.240;2022-08-01T06:40:41;18.37;;;15.57;;
23258;SDS011;11798;51.528;7.240;2022-08-01T06:43:07;20.33;;;15.00;;
23258;SDS011;11798;51.528;7.240;2022-08-01T06:45:33;22.77;;;16.37;;
23258;SDS011;11798;51.528;7.240;2022-08-01T06:47:58;21.97;;;17.10;;
23258;SDS011;11798;51.528;7.240;2022-08-01T06:50:24;20.83;;;16.20;;
23258;SDS011;11798;51.528;7.240;2022-08-01T06:52:49;20.37;;;15.97;;
23258;SDS011;11798;51.528;7.240;2022-08-01T06:55:15;21.67;;;17.43;;
23258;SDS011;11798;51.528;7.240;2022-08-01T06:57:47;20.60;;;16.83;;
23258;SDS011;11798;51.528;7.240;2022-08-01T07:00:15;22.73;;;18.63;;
23258;SDS011;11798;51.528;7.240;2022-08-01T07:02:43;25.50;;;19.37;;
23258;SDS011;11798;51.528;7.240;2022-08-01T07:05:09;23.00;;;18.47;;
23258;SDS011;11798;51.528;7.240;2022-08-01T07:07:35;25.00;;;19.40;;
23258;SDS011;11798;51.528;7.240;2022-08-01T07:10:01;24.23;;;19.37;;
23258;SDS011;11798;51.528;7.240;2022-08-01T07:12:26;21.90;;;18.00;;
23258;SDS011;11798;51.528;7.240;2022-08-01T07:14:52;23.50;;;19.60;;
23258;SDS011;11798;51.528;7.240;2022-08-01T07:17:17;22.23;;;19.23;;
23258;SDS011;11798;51.528;7.240;2022-08-01T07:19:45;24.60;;;19.83;;
23258;SDS011;11798;51.528;7.240;2022-08-01T07:22:11;19.77;;;17.63;;
23258;SDS011;11798;51.528;7.240;2022-08-01T07:24:36;20.07;;;16.60;;
23258;SDS011;11798;51.528;7.240;2022-08-01T07:27:02;20.73;;;15.43;;
23258;SDS011;11798;51.528;7.240;2022-08-01T07:29:27;16.25;;;13.90;;
23258;SDS011;11798;51.528;7.240;2022-08-01T07:31:54;14.32;;;11.75;;
23258;SDS011;11798;51.528;7.240;2022-08-01T07:34:21;16.90;;;11.77;;
23258;SDS011;11798;51.528;7.240;2022-08-01T07:36:47;13.13;;;11.30;;
23258;SDS011;11798;51.528;7.240;2022-08-01T07:39:13;15.23;;;12.60;;
23258;SDS011;11798;51.528;7.240;2022-08-01T07:41:39;17.30;;;13.50;;
23258;SDS011;11798;51.528;7.240;2022-08-01T07:44:04;15.35;;;13.57;;
23258;SDS011;11798;51.528;7.240;2022-08-01T07:46:30;15.60;;;13.27;;
23258;SDS011;11798;51.528;7.240;2022-08-01T07:48:56;11.68;;;10.07;;
23258;SDS011;11798;51.528;7.240;2022-08-01T07:51:21;10.65;;;8.45;;
23258;SDS011;11798;51.528;7.240;2022-08-01T07:53:47;11.27;;;10.05;;
23258;SDS011;11798;51.528;7.240;2022-08-01T07:56:13;9.25;;;7.72;;
23258;SDS011;11798;51.528;7.240;2022-08-01T07:58:39;8.60;;;7.28;;
23258;SDS011;11798;51.528;7.240;2022-08-01T08:01:05;8.18;;;7.38;;
23258;SDS011;11798;51.528;7.240;2022-08-01T08:03:30;7.68;;;6.82;;
23258;SDS011;11798;51.528;7.240;2022-08-01T08:05:56;7.70;;;6.65;;
23258;SDS011;11798;51.528;7.240;2022-08-01T08:08:22;7.90;;;6.93;;
23258;SDS011;11798;51.528;7.240;2022-08-01T08:10:49;8.00;;;6.00;;
23258;SDS011;11798;51.528;7.240;2022-08-01T08:13:15;7.75;;;6.95;;
23258;SDS011;11798;51.528;7.240;2022-08-01T08:15:40;7.75;;;5.85;;
23258;SDS011;11798;51.528;7.240;2022-08-01T08:18:06;7.47;;;5.05;;
23258;SDS011;11798;51.528;7.240;2022-08-01T08:20:31;5.43;;;4.88;;
23258;SDS011;11798;51.528;7.240;2022-08-01T08:22:57;5.13;;;4.63;;
23258;SDS011;11798;51.528;7.240;2022-08-01T08:25:23;5.60;;;4.82;;
23258;SDS011;11798;51.528;7.240;2022-08-01T08:27:50;5.13;;;4.63;;
23258;SDS011;11798;51.528;7.240;2022-08-01T08:30:16;5.50;;;5.00;;
23258;SDS011;11798;51.528;7.240;2022-08-01T08:32:42;5.55;;;4.65;;
23258;SDS011;11798;51.528;7.240;2022-08-01T08:35:08;4.93;;;4.43;;
23258;SDS011;11798;51.528;7.240;2022-08-01T08:37:34;5.32;;;3.70;;
23258;SDS011;11798;51.528;7.240;2022-08-01T08:40:01;3.47;;;3.15;;
23258;SDS011;11798;51.528;7.240;2022-08-01T08:42:28;3.90;;;3.58;;
23258;SDS011;11798;51.528;7.240;2022-08-01T08:44:53;4.15;;;3.25;;
23258;SDS011;11798;51.528;7.240;2022-08-01T08:47:20;3.95;;;2.88;;
23258;SDS011;11798;51.528;7.240;2022-08-01T08:49:47;4.15;;;3.50;;
23258;SDS011;11798;51.528;7.240;2022-08-01T08:52:15;4.50;;;4.10;;
23258;SDS011;11798;51.528;7.240;2022-08-01T08:54:42;7.97;;;4.22;;
23258;SDS011;11798;51.528;7.240;2022-08-01T08:57:09;4.72;;;3.83;;
23258;SDS011;11798;51.528;7.240;2022-08-01T08:59:38;6.82;;;5.38;;
23258;SDS011;11798;51.528;7.240;2022-08-01T09:02:04;5.50;;;5.00;;
23258;SDS011;11798;51.528;7.240;2022-08-01T09:04:30;4.90;;;4.47;;
23258;SDS011;11798;51.528;7.240;2022-08-01T09:06:56;5.13;;;4.55;;
23258;SDS011;11798;51.528;7.240;2022-08-01T09:09:22;5.55;;;4.72;;
23258;SDS011;11798;51.528;7.240;2022-08-01T09:11:48;4.63;;;4.18;;
23258;SDS011;11798;51.528;7.240;2022-08-01T09:14:15;3.67;;;3.00;;
23258;SDS011;11798;51.528;7.240;2022-08-01T09:17:00;2.33;;;2.13;;
23258;SDS011;11798;51.528;7.240;2022-08-01T09:19:37;2.30;;;1.83;;
23258;SDS011;11798;51.528;7.240;2022-08-01T09:22:13;3.20;;;2.28;;
23258;SDS011;11798;51.528;7.240;2022-08-01T09:24:56;2.53;;;2.05;;
23258;SDS011;11798;51.528;7.240;2022-08-01T09:27:33;4.70;;;2.10;;
23258;SDS011;11798;51.528;7.240;2022-08-01T09:32:58;5.63;;;2.20;;
23258;SDS011;11798;51.528;7.240;2022-08-01T09:35:28;2.30;;;2.10;;
23258;SDS011;11798;51.528;7.240;2022-08-01T09:40:54;1.58;;;1.48;;
23258;SDS011;11798;51.528;7.240;2022-08-01T09:43:22;1.73;;;1.63;;
23258;SDS011;11798;51.528;7.240;2022-08-01T09:45:49;2.08;;;1.80;;
23258;SDS011;11798;51.528;7.240;2022-08-01T09:48:15;1.88;;;1.67;;
23258;SDS011;11798;51.528;7.240;2022-08-01T09:50:42;2.35;;;1.45;;
23258;SDS011;11798;51.528;7.240;2022-08-01T09:53:09;1.30;;;1.20;;
23258;SDS011;11798;51.528;7.240;2022-08-01T09:55:36;2.45;;;1.38;;
23258;SDS011;11798;51.528;7.240;2022-08-01T09:58:02;4.38;;;1.17;;
23258;SDS011;11798;51.528;7.240;2022-08-01T10:00:29;3.42;;;1.48;;
23258;SDS011;11798;51.528;7.240;2022-08-01T10:02:55;3.10;;;1.63;;
23258;SDS011;11798;51.528;7.240;2022-08-01T10:05:29;3.38;;;1.40;;
23258;SDS011;11798;51.528;7.240;2022-08-01T10:07:57;1.50;;;1.40;;
23258;SDS011;11798;51.528;7.240;2022-08-01T10:10:24;1.73;;;1.30;;
23258;SDS011;11798;51.528;7.240;2022-08-01T10:12:50;1.50;;;1.40;;
23258;SDS011;11798;51.528;7.240;2022-08-01T10:15:17;1.70;;;1.60;;
23258;SDS011;11798;51.528;7.240;2022-08-01T10:17:47;2.20;;;1.95;;
23258;SDS011;11798;51.528;7.240;2022-08-01T10:20:22;2.25;;;1.95;;
23258;SDS011;11798;51.528;7.240;2022-08-01T10:22:57;2.30;;;1.80;;
23258;SDS011;11798;51.528;7.240;2022-08-01T10:25:24;2.83;;;1.75;;
23258;SDS011;11798;51.528;7.240;2022-08-01T10:27:53;2.50;;;1.85;;
23258;SDS011;11798;51.528;7.240;2022-08-01T10:30:22;2.08;;;1.70;;
23258;SDS011;11798;51.528;7.240;2022-08-01T10:32:49;1.77;;;1.48;;
23258;SDS011;11798;51.528;7.240;2022-08-01T10:35:17;1.58;;;1.48;;
23258;SDS011;11798;51.528;7.240;2022-08-01T10:37:44;2.10;;;1.63;;
23258;SDS011;11798;51.528;7.240;2022-08-01T10:40:11;1.52;;;1.42;;
23258;SDS011;11798;51.528;7.240;2022-08-01T10:42:39;1.95;;;1.45;;
23258;SDS011;11798;51.528;7.240;2022-08-01T10:45:09;1.63;;;1.52;;
23258;SDS011;11798;51.528;7.240;2022-08-01T10:47:40;1.80;;;1.42;;
23258;SDS011;11798;51.528;7.240;2022-08-01T10:50:46;1.25;;;1.15;;
23258;SDS011;11798;51.528;7.240;2022-08-01T10:58:25;1.60;;;1.50;;
23258;SDS011;11798;51.528;7.240;2022-08-01T11:04:03;1.40;;;1.30;;
23258;SDS011;11798;51.528;7.240;2022-08-01T11:09:01;1.42;;;1.08;;
23258;SDS011;11798;51.528;7.240;2022-08-01T11:14:31;1.27;;;1.13;;
23258;SDS011;11798;51.528;7.240;2022-08-01T11:20:05;1.13;;;1.02;;
23258;SDS011;11798;51.528;7.240;2022-08-01T11:25:26;0.82;;;0.82;;
23258;SDS011;11798;51.528;7.240;2022-08-01T11:30:42;13.88;;;2.25;;
23258;SDS011;11798;51.528;7.240;2022-08-01T11:33:09;0.60;;;0.60;;
23258;SDS011;11798;51.528;7.240;2022-08-01T11:35:35;0.70;;;0.70;;
23258;SDS011;11798;51.528;7.240;2022-08-01T11:43:58;0.50;;;0.50;;
23258;SDS011;11798;51.528;7.240;2022-08-01T11:51:59;1.73;;;0.80;;
23258;SDS011;11798;51.528;7.240;2022-08-01T11:54:46;0.65;;;0.65;;
23258;SDS011;11798;51.528;7.240;2022-08-01T11:57:20;0.60;;;0.60;;
23258;SDS011;11798;51.528;7.240;2022-08-01T11:59:55;1.00;;;0.70;;
23258;SDS011;11798;51.528;7.240;2022-08-01T12:02:23;0.60;;;0.60;;
23258;SDS011;11798;51.528;7.240;2022-08-01T12:04:58;1.00;;;0.80;;
23258;SDS011;11798;51.528;7.240;2022-08-01T12:07:27;0.80;;;0.80;;
23258;SDS011;11798;51.528;7.240;2022-08-01T12:12:28;0.70;;;0.70;;
23258;SDS011;11798;51.528;7.240;2022-08-01T12:14:55;0.63;;;0.63;;
23258;SDS011;11798;51.528;7.240;2022-08-01T12:19:56;0.73;;;0.68;;
23258;SDS011;11798;51.528;7.240;2022-08-01T12:22:22;0.80;;;0.80;;
23258;SDS011;11798;51.528;7.240;2022-08-01T12:24:49;0.90;;;0.90;;
23258;SDS011;11798;51.528;7.240;2022-08-01T12:27:27;1.08;;;0.80;;
23258;SDS011;11798;51.528;7.240;2022-08-01T12:29:53;1.70;;;0.90;;
23258;SDS011;11798;51.528;7.240;2022-08-01T12:32:23;0.70;;;0.70;;
23258;SDS011;11798;51.528;7.240;2022-08-01T12:35:00;0.63;;;0.63;;
23258;SDS011;11798;51.528;7.240;2022-08-01T12:37:40;1.08;;;0.93;;
23258;SDS011;11798;51.528;7.240;2022-08-01T12:40:09;1.35;;;1.00;;
23258;SDS011;11798;51.528;7.240;2022-08-01T12:42:39;0.70;;;0.70;;
23258;SDS011;11798;51.528;7.240;2022-08-01T12:45:09;1.40;;;0.70;;
23258;SDS011;11798;51.528;7.240;2022-08-01T12:47:37;0.93;;;0.90;;
23258;SDS011;11798;51.528;7.240;2022-08-01T12:50:05;1.13;;;0.85;;
23258;SDS011;11798;51.528;7.240;2022-08-01T12:52:50;0.82;;;0.82;;
23258;SDS011;11798;51.528;7.240;2022-08-01T12:55:17;0.75;;;0.70;;
23258;SDS011;11798;51.528;7.240;2022-08-01T12:57:45;0.90;;;0.90;;
23258;SDS011;11798;51.528;7.240;2022-08-01T13:00:23;0.90;;;0.90;;
23258;SDS011;11798;51.528;7.240;2022-08-01T13:03:01;1.02;;;0.80;;
23258;SDS011;11798;51.528;7.240;2022-08-01T13:05:27;0.70;;;0.65;;
23258;SDS011;11798;51.528;7.240;2022-08-01T13:07:53;0.85;;;0.70;;
23258;SDS011;11798;51.528;7.240;2022-08-01T13:10:26;1.10;;;1.00;;
23258;SDS011;11798;51.528;7.240;2022-08-01T13:12:54;1.52;;;1.17;;
23258;SDS011;11798;51.528;7.240;2022-08-01T13:17:52;1.88;;;1.40;;
23258;SDS011;11798;51.528;7.240;2022-08-01T13:20:37;1.70;;;1.40;;
23258;SDS011;11798;51.528;7.240;2022-08-01T13:23:12;2.40;;;1.40;;
23258;SDS011;11798;51.528;7.240;2022-08-01T13:25:52;1.70;;;1.58;;
23258;SDS011;11798;51.528;7.240;2022-08-01T13:28:23;1.65;;;1.55;;
23258;SDS011;11798;51.528;7.240;2022-08-01T13:30:51;1.60;;;1.50;;
23258;SDS011;11798;51.528;7.240;2022-08-01T13:33:27;1.65;;;1.52;;
23258;SDS011;11798;51.528;7.240;2022-08-01T13:36:06;1.40;;;1.30;;
23258;SDS011;11798;51.528;7.240;2022-08-01T13:38:32;1.75;;;1.65;;
23258;SDS011;11798;51.528;7.240;2022-08-01T13:41:27;1.48;;;1.38;;
23258;SDS011;11798;51.528;7.240;2022-08-01T13:43:52;2.95;;;1.50;;
23258;SDS011;11798;51.528;7.240;2022-08-01T13:46:19;3.47;;;1.50;;
23258;SDS011;11798;51.528;7.240;2022-08-01T13:48:45;1.55;;;1.45;;
23258;SDS011;11798;51.528;7.240;2022-08-01T13:51:11;1.40;;;1.30;;
23258;SDS011;11798;51.528;7.240;2022-08-01T13:53:36;1.90;;;1.40;;
23258;SDS011;11798;51.528;7.240;2022-08-01T13:56:02;1.30;;;1.20;;
23258;SDS011;11798;51.528;7.240;2022-08-01T13:58:28;1.42;;;1.30;;
23258;SDS011;11798;51.528;7.240;2022-08-01T14:00:54;1.15;;;1.10;;
23258;SDS011;11798;51.528;7.240;2022-08-01T14:03:20;2.50;;;1.50;;
23258;SDS011;11798;51.528;7.240;2022-08-01T14:05:46;2.03;;;1.65;;
23258;SDS011;11798;51.528;7.240;2022-08-01T14:08:12;1.40;;;1.30;;
23258;SDS011;11798;51.528;7.240;2022-08-01T14:10:38;1.40;;;1.30;;
23258;SDS011;11798;51.528;7.240;2022-08-01T14:13:03;1.30;;;1.20;;
23258;SDS011;11798;51.528;7.240;2022-08-01T14:15:29;1.88;;;1.40;;
23258;SDS011;11798;51.528;7.240;2022-08-01T14:17:56;1.42;;;1.33;;
23258;SDS011;11798;51.528;7.240;2022-08-01T14:20:22;2.50;;;1.55;;
23258;SDS011;11798;51.528;7.240;2022-08-01T14:22:48;1.55;;;1.45;;
23258;SDS011;11798;51.528;7.240;2022-08-01T14:25:14;3.20;;;1.60;;
23258;SDS011;11798;51.528;7.240;2022-08-01T14:27:39;1.95;;;1.45;;
23258;SDS011;11798;51.528;7.240;2022-08-01T14:30:06;2.03;;;1.40;;
23258;SDS011;11798;51.528;7.240;2022-08-01T14:32:33;1.60;;;1.50;;
23258;SDS011;11798;51.528;7.240;2022-08-01T14:35:03;2.78;;;1.58;;
23258;SDS011;11798;51.528;7.240;2022-08-01T14:37:30;2.75;;;1.83;;
23258;SDS011;11798;51.528;7.240;2022-08-01T14:39:57;2.92;;;1.67;;
23258;SDS011;11798;51.528;7.240;2022-08-01T14:42:23;1.80;;;1.70;;
23258;SDS011;11798;51.528;7.240;2022-08-01T14:44:49;1.75;;;1.60;;
23258;SDS011;11798;51.528;7.240;2022-08-01T14:47:14;2.35;;;1.63;;
23258;SDS011;11798;51.528;7.240;2022-08-01T14:49:40;1.48;;;1.30;;
23258;SDS011;11798;51.528;7.240;2022-08-01T14:52:06;1.77;;;1.55;;
23258;SDS011;11798;51.528;7.240;2022-08-01T14:54:32;3.17;;;1.50;;
23258;SDS011;11798;51.528;7.240;2022-08-01T14:56:57;2.92;;;1.63;;
23258;SDS011;11798;51.528;7.240;2022-08-01T14:59:23;1.77;;;1.55;;
23258;SDS011;11798;51.528;7.240;2022-08-01T15:01:49;3.20;;;1.95;;
23258;SDS011;11798;51.528;7.240;2022-08-01T15:04:15;2.30;;;1.70;;
23258;SDS011;11798;51.528;7.240;2022-08-01T15:06:42;3.03;;;1.90;;
23258;SDS011;11798;51.528;7.240;2022-08-01T15:09:08;2.55;;;2.05;;
23258;SDS011;11798;51.528;7.240;2022-08-01T15:11:34;2.08;;;1.90;;
23258;SDS011;11798;51.528;7.240;2022-08-01T15:13:59;2.70;;;1.70;;
23258;SDS011;11798;51.528;7.240;2022-08-01T15:16:44;2.55;;;2.00;;
23258;SDS011;11798;51.528;7.240;2022-08-01T15:19:09;1.95;;;1.60;;
23258;SDS011;11798;51.528;7.240;2022-08-01T15:21:35;2.28;;;1.77;;
23258;SDS011;11798;51.528;7.240;2022-08-01T15:24:01;1.85;;;1.67;;
23258;SDS011;11798;51.528;7.240;2022-08-01T15:26:26;2.28;;;1.73;;
23258;SDS011;11798;51.528;7.240;2022-08-01T15:28:53;1.85;;;1.55;;
23258;SDS011;11798;51.528;7.240;2022-08-01T15:31:18;3.15;;;2.20;;
23258;SDS011;11798;51.528;7.240;2022-08-01T15:33:44;2.90;;;2.10;;
23258;SDS011;11798;51.528;7.240;2022-08-01T15:36:09;3.33;;;1.83;;
23258;SDS011;11798;51.528;7.240;2022-08-01T15:38:35;2.38;;;1.88;;
23258;SDS011;11798;51.528;7.240;2022-08-01T15:41:01;3.72;;;2.47;;
23258;SDS011;11798;51.528;7.240;2022-08-01T15:43:27;2.42;;;1.95;;
23258;SDS011;11798;51.528;7.240;2022-08-01T15:45:53;2.00;;;1.67;;
23258;SDS011;11798;51.528;7.240;2022-08-01T15:48:18;2.83;;;1.90;;
23258;SDS011;11798;51.528;7.240;2022-08-01T15:50:44;3.58;;;1.95;;
23258;SDS011;11798;51.528;7.240;2022-08-01T15:53:10;5.97;;;2.00;;
23258;SDS011;11798;51.528;7.240;2022-08-01T15:55:36;2.42;;;2.17;;
23258;SDS011;11798;51.528;7.240;2022-08-01T15:58:02;2.13;;;1.90;;
23258;SDS011;11798;51.528;7.240;2022-08-01T16:00:29;2.88;;;2.10;;
23258;SDS011;11798;51.528;7.240;2022-08-01T16:02:55;3.05;;;2.35;;
23258;SDS011;11798;51.528;7.240;2022-08-01T16:05:21;3.00;;;2.10;;
23258;SDS011;11798;51.528;7.240;2022-08-01T16:07:47;3.45;;;2.00;;
23258;SDS011;11798;51.528;7.240;2022-08-01T16:10:13;3.05;;;2.20;;
23258;SDS011;11798;51.528;7.240;2022-08-01T16:12:39;5.03;;;2.42;;
23258;SDS011;11798;51.528;7.240;2022-08-01T16:15:05;4.35;;;2.35;;
23258;SDS011;11798;51.528;7.240;2022-08-01T16:17:31;5.22;;;2.30;;
23258;SDS011;11798;51.528;7.240;2022-08-01T16:19:56;3.40;;;2.25;;
23258;SDS011;11798;51.528;7.240;2022-08-01T16:22:22;2.60;;;2.13;;
23258;SDS011;11798;51.528;7.240;2022-08-01T16:24:48;3.85;;;2.22;;
23258;SDS011;11798;51.528;7.240;2022-08-01T16:27:13;3.55;;;2.55;;
23258;SDS011;11798;51.528;7.240;2022-08-01T16:29:39;4.95;;;2.42;;
23258;SDS011;11798;51.528;7.240;2022-08-01T16:32:04;5.07;;;2.10;;
23258;SDS011;11798;51.528;7.240;2022-08-01T16:34:30;3.85;;;2.38;;
23258;SDS011;11798;51.528;7.240;2022-08-01T16:36:56;3.03;;;2.50;;
23258;SDS011;11798;51.528;7.240;2022-08-01T16:39:22;4.53;;;2.33;;
23258;SDS011;11798;51.528;7.240;2022-08-01T16:41:48;4.80;;;2.53;;
23258;SDS011;11798;51.528;7.240;2022-08-01T16:44:14;6.22;;;2.40;;
23258;SDS011;11798;51.528;7.240;2022-08-01T16:46:40;3.00;;;2.20;;
23258;SDS011;11798;51.528;7.240;2022-08-01T16:49:05;4.85;;;2.65;;
23258;SDS011;11798;51.528;7.240;2022-08-01T16:51:31;2.88;;;2.58;;
23258;SDS011;11798;51.528;7.240;2022-08-01T16:53:58;3.50;;;2.10;;
23258;SDS011;11798;51.528;7.240;2022-08-01T16:56:24;3.47;;;2.70;;
23258;SDS011;11798;51.528;7.240;2022-08-01T16:58:50;6.93;;;3.00;;
23258;SDS011;11798;51.528;7.240;2022-08-01T17:01:16;4.28;;;2.10;;
23258;SDS011;11798;51.528;7.240;2022-08-01T17:03:45;3.63;;;2.05;;
23258;SDS011;11798;51.528;7.240;2022-08-01T17:06:11;4.65;;;2.55;;
23258;SDS011;11798;51.528;7.240;2022-08-01T17:08:37;3.33;;;2.42;;
23258;SDS011;11798;51.528;7.240;2022-08-01T17:11:03;5.72;;;2.60;;
23258;SDS011;11798;51.528;7.240;2022-08-01T17:13:28;2.50;;;2.20;;
23258;SDS011;11798;51.528;7.240;2022-08-01T17:15:54;3.67;;;2.05;;
23258;SDS011;11798;51.528;7.240;2022-08-01T17:18:20;4.22;;;2.45;;
23258;SDS011;11798;51.528;7.240;2022-08-01T17:20:45;4.32;;;2.55;;
23258;SDS011;11798;51.528;7.240;2022-08-01T17:23:14;3.58;;;2.17;;
23258;SDS011;11798;51.528;7.240;2022-08-01T17:25:40;3.47;;;2.42;;
23258;SDS011;11798;51.528;7.240;2022-08-01T17:28:06;4.15;;;2.60;;
23258;SDS011;11798;51.528;7.240;2022-08-01T17:30:32;3.33;;;2.53;;
23258;SDS011;11798;51.528;7.240;2022-08-01T17:32:57;4.15;;;2.45;;
23258;SDS011;11798;51.528;7.240;2022-08-01T17:35:23;3.42;;;2.42;;
23258;SDS011;11798;51.528;7.240;2022-08-01T17:37:49;4.70;;;2.10;;
23258;SDS011;11798;51.528;7.240;2022-08-01T17:40:14;2.78;;;2.40;;
23258;SDS011;11798;51.528;7.240;2022-08-01T17:42:41;5.60;;;3.00;;
23258;SDS011;11798;51.528;7.240;2022-08-01T17:45:10;6.45;;;2.70;;
23258;SDS011;11798;51.528;7.240;2022-08-01T17:47:37;2.38;;;2.05;;
23258;SDS011;11798;51.528;7.240;2022-08-01T17:50:05;3.53;;;2.60;;
23258;SDS011;11798;51.528;7.240;2022-08-01T17:52:33;3.33;;;2.15;;
23258;SDS011;11798;51.528;7.240;2022-08-01T17:54:59;5.35;;;2.67;;
23258;SDS011;11798;51.528;7.240;2022-08-01T17:57:25;3.70;;;2.53;;
23258;SDS011;11798;51.528;7.240;2022-08-01T17:59:51;4.97;;;2.85;;
23258;SDS011;11798;51.528;7.240;2022-08-01T18:02:17;3.58;;;2.45;;
23258;SDS011;11798;51.528;7.240;2022-08-01T18:04:43;6.28;;;3.30;;
23258;SDS011;11798;51.528;7.240;2022-08-01T18:07:08;5.53;;;2.92;;
23258;SDS011;11798;51.528;7.240;2022-08-01T18:09:34;4.35;;;2.80;;
23258;SDS011;11798;51.528;7.240;2022-08-01T18:12:00;3.55;;;2.22;;
23258;SDS011;11798;51.528;7.240;2022-08-01T18:14:26;3.30;;;2.17;;
23258;SDS011;11798;51.528;7.240;2022-08-01T18:16:52;4.65;;;2.55;;
23258;SDS011;11798;51.528;7.240;2022-08-01T18:19:18;4.68;;;2.80;;
23258;SDS011;11798;51.528;7.240;2022-08-01T18:21:45;4.75;;;2.25;;
23258;SDS011;11798;51.528;7.240;2022-08-01T18:24:11;3.72;;;2.35;;
23258;SDS011;11798;51.528;7.240;2022-08-01T18:26:37;4.38;;;2.80;;
23258;SDS011;11798;51.528;7.240;2022-08-01T18:29:03;3.50;;;2.45;;
23258;SDS011;11798;51.528;7.240;2022-08-01T18:31:30;3.03;;;2.13;;
23258;SDS011;11798;51.528;7.240;2022-08-01T18:33:56;4.32;;;2.60;;
23258;SDS011;11798;51.528;7.240;2022-08-01T18:36:22;5.40;;;2.83;;
23258;SDS011;11798;51.528;7.240;2022-08-01T18:38:48;5.90;;;2.80;;
23258;SDS011;11798;51.528;7.240;2022-08-01T18:41:14;4.28;;;2.45;;
23258;SDS011;11798;51.528;7.240;2022-08-01T18:43:39;6.85;;;2.90;;
23258;SDS011;11798;51.528;7.240;2022-08-01T18:46:05;4.13;;;2.47;;
23258;SDS011;11798;51.528;7.240;2022-08-01T18:48:30;4.88;;;2.35;;
23258;SDS011;11798;51.528;7.240;2022-08-01T18:50:56;3.42;;;2.90;;
23258;SDS011;11798;51.528;7.240;2022-08-01T18:53:24;6.07;;;2.90;;
23258;SDS011;11798;51.528;7.240;2022-08-01T18:55:50;4.20;;;2.97;;
23258;SDS011;11798;51.528;7.240;2022-08-01T18:58:16;4.93;;;2.72;;
23258;SDS011;11798;51.528;7.240;2022-08-01T19:00:42;6.72;;;2.92;;
23258;SDS011;11798;51.528;7.240;2022-08-01T19:03:07;5.15;;;2.50;;
23258;SDS011;11798;51.528;7.240;2022-08-01T19:05:34;4.30;;;2.78;;
23258;SDS011;11798;51.528;7.240;2022-08-01T19:08:00;5.43;;;3.03;;
23258;SDS011;11798;51.528;7.240;2022-08-01T19:10:26;5.53;;;2.72;;
23258;SDS011;11798;51.528;7.240;2022-08-01T19:12:52;6.90;;;2.88;;
23258;SDS011;11798;51.528;7.240;2022-08-01T19:15:17;4.82;;;3.05;;
23258;SDS011;11798;51.528;7.240;2022-08-01T19:17:43;6.53;;;4.32;;
23258;SDS011;11798;51.528;7.240;2022-08-01T19:20:09;6.28;;;4.40;;
23258;SDS011;11798;51.528;7.240;2022-08-01T19:22:35;6.15;;;4.22;;
23258;SDS011;11798;51.528;7.240;2022-08-01T19:25:01;7.68;;;4.25;;
23258;SDS011;11798;51.528;7.240;2022-08-01T19:27:27;6.47;;;4.30;;
23258;SDS011;11798;51.528;7.240;2022-08-01T19:29:54;6.60;;;3.53;;
23258;SDS011;11798;51.528;7.240;2022-08-01T19:32:23;4.83;;;3.07;;
23258;SDS011;11798;51.528;7.240;2022-08-01T19:35:11;4.50;;;3.00;;
23258;SDS011;11798;51.528;7.240;2022-08-01T19:37:37;7.13;;;3.37;;
23258;SDS011;11798;51.528;7.240;2022-08-01T19:40:12;7.23;;;3.50;;
23258;SDS011;11798;51.528;7.240;2022-08-01T19:42:40;4.83;;;3.37;;
23258;SDS011;11798;51.528;7.240;2022-08-01T19:45:06;7.37;;;3.77;;
23258;SDS011;11798;51.528;7.240;2022-08-01T19:47:33;5.57;;;3.27;;
23258;SDS011;11798;51.528;7.240;2022-08-01T19:49:59;4.43;;;3.17;;
23258;SDS011;11798;51.528;7.240;2022-08-01T19:52:26;6.83;;;3.43;;
23258;SDS011;11798;51.528;7.240;2022-08-01T19:54:54;7.90;;;3.23;;
23258;SDS011;11798;51.528;7.240;2022-08-01T19:57:21;5.37;;;3.13;;
23258;SDS011;11798;51.528;7.240;2022-08-01T19:59:49;5.53;;;3.00;;
23258;SDS011;11798;51.528;7.240;2022-08-01T20:02:17;6.40;;;3.40;;
23258;SDS011;11798;51.528;7.240;2022-08-01T20:04:46;6.33;;;2.93;;
23258;SDS011;11798;51.528;7.240;2022-08-01T20:07:13;4.93;;;3.17;;
23258;SDS011;11798;51.528;7.240;2022-08-01T20:09:40;7.93;;;3.53;;
23258;SDS011;11798;51.528;7.240;2022-08-01T20:12:09;6.80;;;3.93;;
23258;SDS011;11798;51.528;7.240;2022-08-01T20:14:34;6.80;;;3.90;;
23258;SDS011;11798;51.528;7.240;2022-08-01T20:17:00;6.40;;;3.20;;
23258;SDS011;11798;51.528;7.240;2022-08-01T20:19:26;5.83;;;3.30;;
23258;SDS011;11798;51.528;7.240;2022-08-01T20:21:56;5.73;;;3.10;;
23258;SDS011;11798;51.528;7.240;2022-08-01T20:24:26;5.37;;;3.77;;
23258;SDS011;11798;51.528;7.240;2022-08-01T20:26:54;4.77;;;2.83;;
23258;SDS011;11798;51.528;7.240;2022-08-01T20:29:21;6.07;;;3.53;;
23258;SDS011;11798;51.528;7.240;2022-08-01T20:31:49;8.17;;;3.80;;
23258;SDS011;11798;51.528;7.240;2022-08-01T20:34:16;6.70;;;3.47;;
23258;SDS011;11798;51.528;7.240;2022-08-01T20:36:45;5.33;;;3.30;;
23258;SDS011;11798;51.528;7.240;2022-08-01T20:39:11;6.77;;;3.53;;
23258;SDS011;11798;51.528;7.240;2022-08-01T20:41:38;5.27;;;3.40;;
23258;SDS011;11798;51.528;7.240;2022-08-01T20:44:04;7.67;;;3.53;;
23258;SDS011;11798;51.528;7.240;2022-08-01T20:46:30;10.13;;;4.10;;
23258;SDS011;11798;51.528;7.240;2022-08-01T20:48:56;9.67;;;3.73;;
23258;SDS011;11798;51.528;7.240;2022-08-01T20:51:25;5.83;;;4.00;;
23258;SDS011;11798;51.528;7.240;2022-08-01T20:53:53;7.73;;;3.40;;
23258;SDS011;11798;51.528;7.240;2022-08-01T20:59:23;4.47;;;3.50;;
23258;SDS011;11798;51.528;7.240;2022-08-01T21:02:00;11.30;;;3.90;;
23258;SDS011;11798;51.528;7.240;2022-08-01T21:09:53;8.73;;;4.20;;
23258;SDS011;11798;51.528;7.240;2022-08-01T21:12:53;7.53;;;3.67;;
23258;SDS011;11798;51.528;7.240;2022-08-01T21:21:02;5.53;;;3.50;;
23258;SDS011;11798;51.528;7.240;2022-08-01T21:26:03;7.53;;;3.97;;
23258;SDS011;11798;51.528;7.240;2022-08-01T21:28:30;6.60;;;4.23;;
23258;SDS011;11798;51.528;7.240;2022-08-01T21:30:59;8.23;;;3.77;;
23258;SDS011;11798;51.528;7.240;2022-08-01T21:33:25;6.80;;;3.90;;